Time;durP1;ratioP1;P1;durP2;ratioP2;P2;SDS_P1;SDS_P2;PMS_P1;PMS_P2;Temp;Humidity;BMP_temperature;BMP_pressure;BME280_temperature;BME280_humidity;BME280_pressure;Samples;Min_cycle;Max_cycle;Signal;HPM_P1;HPM_P2
2021/03/19 00:00:00;;;;;;;3.50;3.20;;;1.40;99.90;;;;;;4696576;30;20794;-79
2021/03/19 00:02:26;;;;;;;3.70;3.35;;;1.50;99.90;;;;;;4723614;30;20414;-77
2021/03/19 00:04:52;;;;;;;3.43;3.13;;;1.50;99.90;;;;;;4725092;30;20783;-79
2021/03/19 00:07:18;;;;;;;3.40;3.10;;;1.40;99.90;;;;;;4702550;30;20431;-77
2021/03/19 00:09:43;;;;;;;4.18;3.60;;;1.40;99.90;;;;;;4721618;30;20419;-78
2021/03/19 00:12:09;;;;;;;3.72;3.42;;;1.40;99.90;;;;;;4725135;30;20963;-77
2021/03/19 00:14:35;;;;;;;3.50;3.20;;;1.50;99.90;;;;;;4690446;30;20423;-79
2021/03/19 00:17:01;;;;;;;3.60;3.30;;;1.60;99.90;;;;;;4699556;30;20969;-78
2021/03/19 00:19:27;;;;;;;4.40;4.03;;;1.50;99.90;;;;;;4709963;30;20437;-77
2021/03/19 00:21:52;;;;;;;4.20;3.80;;;1.30;99.90;;;;;;4712580;30;20466;-76
2021/03/19 00:24:18;;;;;;;3.58;3.28;;;1.30;99.90;;;;;;4704127;30;20422;-76
2021/03/19 00:26:44;;;;;;;3.65;3.35;;;1.30;99.90;;;;;;4728023;30;20502;-78
2021/03/19 00:29:09;;;;;;;3.57;3.27;;;1.30;99.90;;;;;;4706155;30;21195;-77
2021/03/19 00:31:35;;;;;;;4.07;3.67;;;1.20;99.90;;;;;;4735129;30;20434;-77
2021/03/19 00:34:01;;;;;;;4.78;4.18;;;1.30;99.90;;;;;;4713997;30;21007;-77
2021/03/19 00:36:27;;;;;;;5.30;4.47;;;1.10;99.90;;;;;;4725907;30;20408;-77
2021/03/19 00:38:52;;;;;;;4.50;4.10;;;1.10;99.90;;;;;;4704322;30;20452;-78
2021/03/19 00:41:19;;;;;;;4.95;4.45;;;1.10;99.90;;;;;;4683828;30;20452;-77
2021/03/19 00:43:45;;;;;;;5.35;4.78;;;1.10;99.90;;;;;;4688967;30;20423;-79
2021/03/19 00:46:11;;;;;;;5.57;4.88;;;1.10;99.90;;;;;;4723482;30;20424;-76
2021/03/19 00:48:36;;;;;;;5.57;5.07;;;1.10;99.90;;;;;;4721422;30;20528;-77
2021/03/19 00:51:02;;;;;;;6.57;5.30;;;1.00;99.90;;;;;;4697956;30;20436;-78
2021/03/19 00:53:28;;;;;;;6.50;4.85;;;1.10;99.90;;;;;;4712945;30;20493;-78
2021/03/19 00:55:56;;;;;;;5.55;4.90;;;1.20;99.90;;;;;;4698642;30;20431;-78
2021/03/19 00:58:22;;;;;;;5.68;5.07;;;1.20;99.90;;;;;;4719233;30;20455;-78
2021/03/19 01:00:47;;;;;;;5.22;4.70;;;1.20;99.90;;;;;;4707548;30;20778;-76
2021/03/19 01:03:13;;;;;;;6.00;5.38;;;1.10;99.90;;;;;;4701215;30;20436;-77
2021/03/19 01:05:45;;;;;;;6.30;5.28;;;1.20;99.90;;;;;;4688843;30;20434;-77
2021/03/19 01:08:12;;;;;;;6.10;5.45;;;1.30;99.90;;;;;;4686007;30;20430;-77
2021/03/19 01:10:45;;;;;;;7.72;5.30;;;1.10;99.90;;;;;;4717040;30;20527;-77
2021/03/19 01:13:11;;;;;;;5.45;4.78;;;1.10;99.90;;;;;;4702110;30;20430;-76
2021/03/19 01:15:37;;;;;;;6.28;5.45;;;1.10;99.90;;;;;;4716406;30;20433;-77
2021/03/19 01:18:04;;;;;;;6.97;5.82;;;1.10;99.90;;;;;;4722915;30;20428;-77
2021/03/19 01:20:30;;;;;;;7.65;5.82;;;1.10;99.90;;;;;;4715796;30;20431;-78
2021/03/19 01:22:56;;;;;;;6.88;6.18;;;1.10;99.90;;;;;;4703872;30;20506;-78
2021/03/19 01:25:22;;;;;;;6.55;5.40;;;1.10;99.90;;;;;;4695793;30;20525;-78
2021/03/19 01:27:48;;;;;;;7.13;6.15;;;1.10;99.90;;;;;;4702192;30;20439;-78
2021/03/19 01:30:16;;;;;;;6.30;5.70;;;1.10;99.90;;;;;;4701531;30;21733;-77
2021/03/19 01:32:42;;;;;;;6.50;5.90;;;1.10;99.90;;;;;;4714933;30;20424;-77
2021/03/19 01:35:08;;;;;;;6.22;5.63;;;1.00;99.90;;;;;;4706963;30;20958;-77
2021/03/19 01:37:34;;;;;;;6.43;5.47;;;1.00;99.90;;;;;;4716822;30;20426;-77
2021/03/19 01:40:00;;;;;;;5.65;5.00;;;1.10;99.90;;;;;;4724960;30;20433;-77
2021/03/19 01:42:25;;;;;;;6.90;5.60;;;1.00;99.90;;;;;;4677189;30;20438;-78
2021/03/19 01:45:13;;;;;;;5.57;5.07;;;1.10;99.90;;;;;;4717152;30;20461;-76
2021/03/19 01:48:16;;;;;;;5.93;5.43;;;1.00;99.90;;;;;;4732526;30;20455;-77
2021/03/19 01:51:19;;;;;;;5.88;5.30;;;1.10;99.90;;;;;;4712641;30;20474;-77
2021/03/19 01:54:22;;;;;;;5.60;5.00;;;1.00;99.90;;;;;;4725207;30;20542;-77
2021/03/19 01:57:25;;;;;;;5.60;5.10;;;0.90;99.90;;;;;;4732753;30;20433;-77
2021/03/19 02:00:28;;;;;;;5.55;5.05;;;0.90;99.90;;;;;;4733095;30;20466;-77
2021/03/19 02:03:31;;;;;;;7.88;5.10;;;0.80;99.90;;;;;;4729510;30;20437;-80
2021/03/19 02:06:34;;;;;;;6.05;5.30;;;0.80;99.90;;;;;;4722478;30;20423;-76
2021/03/19 02:09:37;;;;;;;5.40;4.87;;;0.90;99.90;;;;;;4715779;30;21114;-77
2021/03/19 02:12:40;;;;;;;5.73;5.23;;;0.90;99.90;;;;;;4710590;30;20527;-77
2021/03/19 02:15:43;;;;;;;5.35;4.85;;;1.00;99.90;;;;;;4725991;30;20428;-77
2021/03/19 02:18:46;;;;;;;6.10;5.40;;;1.10;99.90;;;;;;4715184;30;20414;-78
2021/03/19 02:21:49;;;;;;;6.50;5.50;;;1.10;99.90;;;;;;4714465;30;20430;-77
2021/03/19 02:24:52;;;;;;;6.68;5.47;;;1.10;99.90;;;;;;4712055;30;20935;-78
2021/03/19 02:27:55;;;;;;;5.90;5.30;;;1.20;99.90;;;;;;4715155;30;20431;-77
2021/03/19 02:30:58;;;;;;;6.78;6.07;;;1.10;99.90;;;;;;4716727;30;20429;-77
2021/03/19 02:33:24;;;;;;;6.03;5.18;;;1.00;99.90;;;;;;4728673;30;20414;-77
2021/03/19 02:36:05;;;;;;;5.50;4.90;;;1.00;99.90;;;;;;4729721;30;20453;-78
2021/03/19 02:38:31;;;;;;;5.88;4.95;;;1.10;99.90;;;;;;4724532;30;20425;-78
2021/03/19 02:40:57;;;;;;;5.82;5.32;;;1.10;99.90;;;;;;4713660;30;20416;-78
2021/03/19 02:43:23;;;;;;;6.40;5.53;;;1.20;99.90;;;;;;4713050;30;20436;-79
2021/03/19 02:45:49;;;;;;;6.18;5.55;;;1.20;99.90;;;;;;4719808;30;20503;-76
2021/03/19 02:48:15;;;;;;;6.13;5.53;;;1.30;99.90;;;;;;4720863;30;20458;-77
2021/03/19 02:50:41;;;;;;;6.55;5.80;;;1.60;99.90;;;;;;4684307;30;20434;-78
2021/03/19 02:53:37;;;;;;;6.10;5.57;;;1.40;99.90;;;;;;4702641;30;20429;-77
2021/03/19 02:56:06;;;;;;;5.93;5.30;;;1.30;99.90;;;;;;4720376;30;20509;-77
2021/03/19 02:58:31;;;;;;;5.28;4.78;;;1.30;99.90;;;;;;4720261;30;20786;-79
2021/03/19 03:00:57;;;;;;;5.82;5.20;;;1.40;99.90;;;;;;4691420;30;20445;-77
2021/03/19 03:03:23;;;;;;;6.20;5.60;;;1.30;99.90;;;;;;4703935;30;20440;-77
2021/03/19 03:05:48;;;;;;;5.90;5.30;;;1.40;99.90;;;;;;4732068;30;20426;-77
2021/03/19 03:08:16;;;;;;;6.47;5.78;;;1.30;99.90;;;;;;4691225;30;20452;-76
2021/03/19 03:10:42;;;;;;;6.68;5.72;;;1.30;99.90;;;;;;4707337;30;20498;-77
2021/03/19 03:13:08;;;;;;;6.28;5.30;;;1.20;99.90;;;;;;4724771;30;20527;-77
2021/03/19 03:15:34;;;;;;;6.37;5.77;;;1.20;99.90;;;;;;4706599;30;20431;-77
2021/03/19 03:17:59;;;;;;;6.27;5.20;;;1.20;99.90;;;;;;4726862;30;20515;-76
2021/03/19 03:20:37;;;;;;;6.10;5.50;;;1.30;99.90;;;;;;4733529;30;20556;-76
2021/03/19 03:23:03;;;;;;;7.85;6.18;;;1.30;99.90;;;;;;4732720;30;20443;-76
2021/03/19 03:25:29;;;;;;;10.75;7.25;;;1.40;99.90;;;;;;4701123;30;20517;-77
2021/03/19 03:27:55;;;;;;;7.70;6.57;;;1.30;99.90;;;;;;4716981;30;20541;-76
2021/03/19 03:30:30;;;;;;;7.63;6.13;;;1.30;99.90;;;;;;4709542;30;20426;-76
2021/03/19 03:32:55;;;;;;;9.10;6.80;;;1.30;99.90;;;;;;4717565;30;20431;-81
2021/03/19 03:35:22;;;;;;;10.23;7.82;;;1.30;99.90;;;;;;4700831;30;20429;-76
2021/03/19 03:37:47;;;;;;;10.65;8.20;;;1.30;99.90;;;;;;4703225;30;20453;-77
2021/03/19 03:40:17;;;;;;;14.85;9.48;;;1.20;99.90;;;;;;4718812;30;20490;-76
2021/03/19 03:42:43;;;;;;;12.27;8.95;;;1.30;99.90;;;;;;4703536;30;20434;-77
2021/03/19 03:45:09;;;;;;;13.17;9.17;;;1.20;99.90;;;;;;4719820;30;20425;-77
2021/03/19 03:47:35;;;;;;;11.20;8.38;;;1.20;99.90;;;;;;4706945;30;20432;-76
2021/03/19 03:50:01;;;;;;;10.35;8.23;;;1.20;99.90;;;;;;4719936;30;20441;-77
2021/03/19 03:52:27;;;;;;;14.07;9.65;;;1.20;99.90;;;;;;4702203;30;20442;-77
2021/03/19 03:54:52;;;;;;;14.47;10.23;;;1.20;99.90;;;;;;4704373;30;20943;-77
2021/03/19 03:57:18;;;;;;;12.98;9.20;;;1.20;99.90;;;;;;4724797;30;21005;-76
2021/03/19 03:59:46;;;;;;;12.05;9.95;;;1.20;99.90;;;;;;4723815;30;20527;-78
2021/03/19 04:02:22;;;;;;;14.32;10.10;;;1.30;99.90;;;;;;4694031;30;20441;-76
2021/03/19 04:04:49;;;;;;;12.38;9.13;;;1.20;99.90;;;;;;4716208;30;20438;-77
2021/03/19 04:07:14;;;;;;;13.68;10.88;;;1.20;99.90;;;;;;4698871;30;20469;-80
2021/03/19 04:09:41;;;;;;;15.60;11.45;;;1.20;99.90;;;;;;4707508;30;20889;-77
2021/03/19 04:12:07;;;;;;;14.60;10.82;;;1.10;99.90;;;;;;4702647;30;20433;-78
2021/03/19 04:14:33;;;;;;;14.25;11.25;;;1.20;99.90;;;;;;4711558;30;20415;-78
2021/03/19 04:16:59;;;;;;;14.90;10.43;;;1.20;99.90;;;;;;4716476;30;20443;-77
2021/03/19 04:19:25;;;;;;;17.03;11.33;;;1.20;99.90;;;;;;4729576;30;20519;-77
2021/03/19 04:21:51;;;;;;;16.42;11.57;;;1.20;99.90;;;;;;4710532;30;20456;-76
2021/03/19 04:24:17;;;;;;;18.98;11.88;;;1.20;99.90;;;;;;4715469;30;20432;-76
2021/03/19 04:26:43;;;;;;;13.57;11.70;;;1.20;99.90;;;;;;4732794;30;20439;-76
2021/03/19 04:29:09;;;;;;;18.48;11.80;;;1.20;99.90;;;;;;4716840;30;20418;-76
2021/03/19 04:31:34;;;;;;;14.40;11.40;;;1.20;99.90;;;;;;4717791;30;20436;-75
2021/03/19 04:34:00;;;;;;;14.83;12.03;;;1.20;99.90;;;;;;4712953;30;20635;-75
2021/03/19 04:36:38;;;;;;;17.02;11.80;;;1.20;99.90;;;;;;4729396;30;20451;-76
2021/03/19 04:39:05;;;;;;;18.48;12.05;;;1.20;99.90;;;;;;4702971;30;20423;-76
2021/03/19 04:41:31;;;;;;;18.55;13.07;;;1.20;99.90;;;;;;4703924;30;20425;-76
2021/03/19 04:43:57;;;;;;;15.45;12.40;;;1.20;99.90;;;;;;4724167;30;20422;-77
2021/03/19 04:46:23;;;;;;;15.27;11.47;;;1.30;99.90;;;;;;4733221;30;20430;-78
2021/03/19 04:48:49;;;;;;;16.27;10.97;;;1.30;99.90;;;;;;4712514;30;20441;-81
2021/03/19 04:51:15;;;;;;;15.45;11.18;;;1.20;99.90;;;;;;4719123;30;20446;-79
2021/03/19 04:53:40;;;;;;;17.45;11.48;;;1.20;99.90;;;;;;4723178;30;20949;-79
2021/03/19 04:56:06;;;;;;;17.20;11.90;;;1.20;99.90;;;;;;4713353;30;20441;-76
2021/03/19 04:58:32;;;;;;;16.87;11.53;;;1.20;99.90;;;;;;4707671;30;20511;-77
2021/03/19 05:00:57;;;;;;;14.35;10.88;;;1.20;99.90;;;;;;4704584;30;20449;-77
2021/03/19 05:03:23;;;;;;;17.83;11.80;;;1.20;99.90;;;;;;4718067;30;20509;-76
2021/03/19 05:05:49;;;;;;;15.63;12.37;;;1.20;99.90;;;;;;4714357;30;20558;-78
2021/03/19 05:08:14;;;;;;;15.95;11.93;;;1.20;99.90;;;;;;4713107;30;20462;-76
2021/03/19 05:10:40;;;;;;;15.50;12.38;;;1.30;99.90;;;;;;4714249;30;20415;-75
2021/03/19 05:13:07;;;;;;;18.90;12.37;;;1.10;99.90;;;;;;4702063;30;20426;-77
2021/03/19 05:15:33;;;;;;;16.92;13.05;;;1.20;99.90;;;;;;4700257;30;20435;-75
2021/03/19 05:17:59;;;;;;;15.93;12.57;;;1.10;99.90;;;;;;4699266;30;20427;-76
2021/03/19 05:20:25;;;;;;;19.08;13.77;;;1.10;99.90;;;;;;4719036;30;20434;-76
2021/03/19 05:22:52;;;;;;;15.68;11.35;;;1.00;99.90;;;;;;4716237;30;21225;-76
2021/03/19 05:25:22;;;;;;;16.63;11.60;;;1.10;99.90;;;;;;4701470;30;21251;-76
2021/03/19 05:27:50;;;;;;;14.93;11.63;;;1.10;99.90;;;;;;4714461;30;20434;-76
2021/03/19 05:30:16;;;;;;;13.52;11.27;;;1.10;99.90;;;;;;4716758;30;20442;-76
2021/03/19 05:32:42;;;;;;;16.08;11.50;;;1.10;99.90;;;;;;4727823;30;21020;-76
2021/03/19 05:35:09;;;;;;;15.75;11.73;;;1.10;99.90;;;;;;4700537;30;20437;-77
2021/03/19 05:37:34;;;;;;;15.88;11.23;;;1.10;99.90;;;;;;4721663;30;20426;-76
2021/03/19 05:40:00;;;;;;;15.02;11.32;;;1.10;99.90;;;;;;4690183;30;20484;-76
2021/03/19 05:42:28;;;;;;;12.82;10.52;;;1.10;99.90;;;;;;4686319;30;20423;-76
2021/03/19 05:45:27;;;;;;;15.70;12.40;;;1.20;99.90;;;;;;4732856;30;20429;-78
2021/03/19 05:47:53;;;;;;;13.52;10.70;;;1.10;99.90;;;;;;4672761;30;20449;-76
2021/03/19 05:50:31;;;;;;;13.68;10.90;;;1.10;99.90;;;;;;4697746;30;20504;-79
2021/03/19 05:53:03;;;;;;;12.65;10.40;;;1.10;99.90;;;;;;4690066;30;20514;-75
2021/03/19 05:55:32;;;;;;;15.48;11.05;;;1.10;99.90;;;;;;4703455;30;20515;-76
2021/03/19 05:57:58;;;;;;;13.30;10.77;;;1.10;99.90;;;;;;4708764;30;20768;-75
2021/03/19 06:00:25;;;;;;;11.38;9.98;;;1.10;99.90;;;;;;4709900;30;20435;-76
2021/03/19 06:02:50;;;;;;;17.52;11.02;;;1.10;99.90;;;;;;4699009;30;21052;-76
2021/03/19 06:05:24;;;;;;;12.37;9.70;;;1.10;99.90;;;;;;4720242;30;20469;-77
2021/03/19 06:07:54;;;;;;;12.93;9.83;;;1.20;99.90;;;;;;4709696;30;20431;-76
2021/03/19 06:10:34;;;;;;;12.38;9.60;;;1.20;99.90;;;;;;4716584;30;20650;-76
2021/03/19 06:13:46;;;;;;;12.63;9.50;;;1.20;99.90;;;;;;4712760;30;20441;-79
2021/03/19 06:16:31;;;;;;;12.85;9.65;;;1.20;99.90;;;;;;4642930;30;20931;-75
2021/03/19 06:18:58;;;;;;;12.68;10.55;;;1.30;99.90;;;;;;4700051;30;20433;-77
2021/03/19 06:21:24;;;;;;;12.52;9.93;;;1.20;99.90;;;;;;4700891;30;20436;-80
2021/03/19 06:24:25;;;;;;;12.57;9.98;;;1.30;99.90;;;;;;4719474;30;20891;-79
2021/03/19 06:26:52;;;;;;;13.45;11.18;;;1.30;99.90;;;;;;4711010;30;20456;-78
2021/03/19 06:29:21;;;;;;;11.90;9.90;;;1.30;99.90;;;;;;4713952;30;20434;-78
2021/03/19 06:32:13;;;;;;;12.90;10.95;;;1.40;99.90;;;;;;4716483;30;20430;-81
2021/03/19 06:35:10;;;;;;;15.25;11.20;;;1.40;99.90;;;;;;4730879;30;20430;-79
2021/03/19 06:37:47;;;;;;;12.90;10.40;;;1.50;99.90;;;;;;4726594;30;20421;-78
2021/03/19 06:40:32;;;;;;;13.38;10.07;;;1.50;99.90;;;;;;4717962;30;20418;-78
2021/03/19 06:43:11;;;;;;;15.13;10.90;;;1.60;99.90;;;;;;4717694;30;20452;-78
2021/03/19 06:45:37;;;;;;;13.80;11.07;;;1.60;99.90;;;;;;4718406;30;20430;-79
2021/03/19 06:48:03;;;;;;;13.13;11.13;;;1.70;99.90;;;;;;4699309;30;20440;-78
2021/03/19 06:50:28;;;;;;;13.70;10.70;;;1.70;99.90;;;;;;4714928;30;20431;-78
2021/03/19 06:53:13;;;;;;;13.77;10.52;;;1.70;99.90;;;;;;4711167;30;21670;-78
2021/03/19 06:55:44;;;;;;;11.13;9.57;;;1.70;99.90;;;;;;4711595;30;20437;-79
2021/03/19 06:58:10;;;;;;;10.35;9.00;;;1.60;99.90;;;;;;4706133;30;20833;-79
2021/03/19 07:00:42;;;;;;;10.57;9.05;;;1.70;99.90;;;;;;4710144;30;20436;-79
2021/03/19 07:03:35;;;;;;;9.35;7.95;;;1.70;99.90;;;;;;4712881;30;20469;-79
2021/03/19 07:06:32;;;;;;;12.18;8.18;;;1.70;99.90;;;;;;4717602;30;20432;-79
2021/03/19 07:09:03;;;;;;;9.50;8.50;;;1.70;99.90;;;;;;4703453;30;20458;-81
2021/03/19 07:11:51;;;;;;;9.13;8.15;;;1.70;99.90;;;;;;4722366;30;20428;-81
2021/03/19 07:14:34;;;;;;;8.63;7.63;;;1.70;99.90;;;;;;4716785;30;20424;-79
2021/03/19 07:17:14;;;;;;;10.13;8.02;;;1.70;99.90;;;;;;4710258;30;20442;-79
2021/03/19 07:19:47;;;;;;;7.50;6.70;;;1.70;99.90;;;;;;4695375;30;20956;-78
2021/03/19 07:22:25;;;;;;;9.15;6.82;;;1.60;99.90;;;;;;4715853;30;20428;-78
2021/03/19 07:25:03;;;;;;;11.18;6.88;;;1.60;99.90;;;;;;4701749;30;20481;-77
2021/03/19 07:27:35;;;;;;;8.52;7.30;;;1.60;99.90;;;;;;4704717;30;20448;-79
2021/03/19 07:30:15;;;;;;;10.95;7.38;;;1.60;99.90;;;;;;4703035;30;20428;-78
2021/03/19 07:33:12;;;;;;;8.73;7.00;;;1.60;99.90;;;;;;4709532;30;20798;-78
2021/03/19 07:36:06;;;;;;;10.07;7.80;;;1.70;99.90;;;;;;4731763;30;20936;-78
2021/03/19 07:38:33;;;;;;;9.85;7.90;;;1.90;99.90;;;;;;4685275;30;20485;-79
2021/03/19 07:41:02;;;;;;;8.63;7.40;;;1.90;99.90;;;;;;4726075;30;20467;-79
2021/03/19 07:43:49;;;;;;;10.18;7.35;;;2.00;99.90;;;;;;4733753;30;20436;-77
2021/03/19 07:46:34;;;;;;;8.95;7.38;;;2.00;99.90;;;;;;4722535;30;20427;-77
2021/03/19 07:49:20;;;;;;;9.00;7.90;;;2.00;99.90;;;;;;4704748;30;20446;-76
2021/03/19 07:52:00;;;;;;;9.23;7.55;;;2.10;99.90;;;;;;4729385;30;20426;-78
2021/03/19 07:54:39;;;;;;;8.43;7.18;;;2.20;99.90;;;;;;4738843;30;20430;-78
2021/03/19 07:57:09;;;;;;;8.07;7.28;;;2.30;99.90;;;;;;4722873;30;20425;-77
2021/03/19 07:59:43;;;;;;;8.95;7.13;;;2.40;99.90;;;;;;4714831;30;20414;-77
2021/03/19 08:02:12;;;;;;;8.20;7.13;;;2.50;99.90;;;;;;4731672;30;20422;-78
2021/03/19 08:04:42;;;;;;;7.53;6.72;;;2.50;99.90;;;;;;4733867;30;20418;-77
2021/03/19 08:07:25;;;;;;;7.97;6.60;;;2.60;99.90;;;;;;4703251;30;21011;-79
2021/03/19 08:10:03;;;;;;;8.45;6.25;;;2.70;99.90;;;;;;4697040;30;20428;-77
2021/03/19 08:12:43;;;;;;;8.07;6.83;;;2.70;99.90;;;;;;4700080;30;20415;-79
2021/03/19 08:15:45;;;;;;;7.90;6.18;;;2.80;99.90;;;;;;4706116;30;20444;-80
2021/03/19 08:18:24;;;;;;;6.90;6.20;;;2.80;99.90;;;;;;4728376;30;20422;-82
2021/03/19 08:21:14;;;;;;;7.38;6.38;;;2.80;99.90;;;;;;4708330;30;20427;-79
2021/03/19 08:23:40;;;;;;;8.30;6.38;;;2.80;99.90;;;;;;4714021;30;20420;-77
2021/03/19 08:26:11;;;;;;;9.47;6.40;;;2.80;99.90;;;;;;4702961;30;20432;-78
2021/03/19 08:29:16;;;;;;;8.52;6.78;;;2.80;99.90;;;;;;4707514;30;20444;-78
2021/03/19 08:32:05;;;;;;;7.65;6.80;;;3.00;99.90;;;;;;4675626;30;20437;-84
2021/03/19 08:34:38;;;;;;;7.97;6.60;;;3.00;99.90;;;;;;4662460;30;20482;-80
2021/03/19 08:37:04;;;;;;;7.75;6.05;;;3.00;99.90;;;;;;4699730;30;20561;-78
2021/03/19 08:39:37;;;;;;;6.50;5.90;;;3.00;99.90;;;;;;4724669;30;20431;-79
2021/03/19 08:42:04;;;;;;;6.68;5.10;;;3.00;99.90;;;;;;4697415;30;20924;-77
2021/03/19 08:44:34;;;;;;;5.97;5.38;;;2.90;99.90;;;;;;4714300;30;20467;-80
2021/03/19 08:47:07;;;;;;;6.07;5.47;;;2.90;99.90;;;;;;4702481;30;20457;-77
2021/03/19 08:49:44;;;;;;;7.50;5.30;;;2.90;99.90;;;;;;4707610;30;20516;-78
2021/03/19 08:52:39;;;;;;;6.30;5.35;;;2.90;99.90;;;;;;4720716;30;20431;-77
2021/03/19 08:55:15;;;;;;;7.93;5.93;;;3.00;99.90;;;;;;4695333;30;20517;-78
2021/03/19 08:57:47;;;;;;;6.20;5.18;;;3.00;99.90;;;;;;4724613;30;20432;-78
2021/03/19 09:00:25;;;;;;;7.43;5.00;;;3.10;99.90;;;;;;4724169;30;20512;-78
2021/03/19 09:02:53;;;;;;;6.13;5.33;;;3.20;99.90;;;;;;4740202;30;20420;-78
2021/03/19 09:05:22;;;;;;;5.30;4.78;;;3.30;99.90;;;;;;4729735;30;20502;-77
2021/03/19 09:08:12;;;;;;;5.05;4.55;;;3.40;99.90;;;;;;4732965;30;20463;-78
2021/03/19 09:10:38;;;;;;;5.43;4.65;;;3.80;99.90;;;;;;4737190;30;20426;-77
2021/03/19 09:13:08;;;;;;;5.40;4.90;;;4.00;99.90;;;;;;4719003;30;20816;-80
2021/03/19 09:15:38;;;;;;;5.10;4.32;;;3.90;99.90;;;;;;4715855;30;20437;-80
2021/03/19 09:18:10;;;;;;;4.70;4.30;;;3.80;99.90;;;;;;4724156;30;20859;-77
2021/03/19 09:20:36;;;;;;;5.57;4.03;;;3.50;99.90;;;;;;4718669;30;20945;-78
2021/03/19 09:23:18;;;;;;;4.20;3.80;;;3.40;99.90;;;;;;4701589;30;20427;-79
2021/03/19 09:25:56;;;;;;;4.13;3.73;;;3.50;99.90;;;;;;4702194;30;20501;-78
2021/03/19 09:28:50;;;;;;;3.40;3.10;;;3.70;99.90;;;;;;4721714;30;20435;-77
2021/03/19 09:31:24;;;;;;;3.90;3.50;;;4.10;99.90;;;;;;4735424;30;20437;-77
2021/03/19 09:33:50;;;;;;;3.60;3.30;;;4.50;99.90;;;;;;4707785;30;20430;-77
2021/03/19 09:36:53;;;;;;;4.43;3.70;;;4.70;99.90;;;;;;4728362;30;20425;-78
2021/03/19 09:39:53;;;;;;;3.35;3.05;;;4.90;99.90;;;;;;4717353;30;20860;-77
2021/03/19 09:42:18;;;;;;;3.80;3.20;;;4.90;99.90;;;;;;4713685;30;20438;-76
2021/03/19 09:45:13;;;;;;;2.90;2.60;;;5.00;99.90;;;;;;4729676;30;20476;-77
2021/03/19 09:48:00;;;;;;;3.63;2.10;;;4.90;99.90;;;;;;4699633;30;20447;-76
2021/03/19 09:50:31;;;;;;;2.92;2.65;;;4.90;99.90;;;;;;4683615;30;20483;-76
2021/03/19 09:53:00;;;;;;;2.40;2.20;;;5.00;99.90;;;;;;4715265;30;20462;-76
2021/03/19 09:55:43;;;;;;;2.67;2.47;;;5.00;99.90;;;;;;4728322;30;20499;-76
2021/03/19 09:58:11;;;;;;;2.53;2.20;;;4.90;99.90;;;;;;4707109;30;20531;-77
2021/03/19 10:00:37;;;;;;;2.55;2.33;;;4.90;99.90;;;;;;4709475;30;20458;-76
2021/03/19 10:03:08;;;;;;;2.63;2.15;;;5.00;99.90;;;;;;4706144;30;20461;-76
2021/03/19 10:05:38;;;;;;;2.38;2.17;;;5.00;99.90;;;;;;4707219;30;20446;-76
2021/03/19 10:08:04;;;;;;;2.13;2.03;;;5.10;99.90;;;;;;4720230;30;20613;-76
2021/03/19 10:10:35;;;;;;;2.05;1.95;;;5.10;99.90;;;;;;4720647;30;20549;-76
2021/03/19 10:13:10;;;;;;;2.38;2.17;;;5.30;99.90;;;;;;4732917;30;20864;-76
2021/03/19 10:15:36;;;;;;;2.10;2.00;;;5.50;99.90;;;;;;4727912;30;20541;-75
2021/03/19 10:18:03;;;;;;;2.30;2.10;;;5.40;99.90;;;;;;4702037;30;20442;-76
2021/03/19 10:20:33;;;;;;;2.20;2.00;;;5.50;99.90;;;;;;4716015;30;20430;-77
2021/03/19 10:23:15;;;;;;;2.38;2.17;;;5.50;99.90;;;;;;4708602;30;20516;-76
2021/03/19 10:25:42;;;;;;;2.90;2.42;;;5.50;99.90;;;;;;4714989;30;20432;-76
2021/03/19 10:28:17;;;;;;;2.30;2.10;;;5.30;99.90;;;;;;4694600;30;20424;-77
2021/03/19 10:30:46;;;;;;;2.78;2.47;;;5.30;99.90;;;;;;4717771;30;21310;-78
2021/03/19 10:33:39;;;;;;;4.00;3.00;;;5.20;99.90;;;;;;4734971;30;20423;-76
2021/03/19 10:36:11;;;;;;;3.78;2.90;;;5.20;99.90;;;;;;4718126;30;20436;-76
2021/03/19 10:38:51;;;;;;;2.67;2.25;;;5.20;99.90;;;;;;4704799;30;20508;-76
2021/03/19 10:41:34;;;;;;;2.80;2.60;;;5.20;99.90;;;;;;4720226;30;20971;-78
2021/03/19 10:44:04;;;;;;;4.00;2.92;;;5.30;99.90;;;;;;4713997;30;20465;-77
2021/03/19 10:46:35;;;;;;;4.40;2.78;;;4.80;99.90;;;;;;4707649;30;20449;-76
2021/03/19 10:49:41;;;;;;;3.42;3.13;;;4.50;99.90;;;;;;4699125;30;20442;-76
2021/03/19 10:52:30;;;;;;;3.20;2.90;;;4.20;99.90;;;;;;4668782;30;20611;-76
2021/03/19 10:54:56;;;;;;;3.40;3.10;;;4.10;99.90;;;;;;4693189;30;20462;-76
2021/03/19 10:57:31;;;;;;;3.45;3.08;;;4.20;99.90;;;;;;4697384;30;20497;-75
2021/03/19 10:59:57;;;;;;;3.22;2.92;;;4.40;99.90;;;;;;4691899;30;20464;-75
2021/03/19 11:02:25;;;;;;;4.88;3.20;;;4.50;99.90;;;;;;4704830;30;20450;-75
2021/03/19 11:04:54;;;;;;;4.03;3.38;;;4.40;99.90;;;;;;4689357;30;20429;-76
2021/03/19 11:07:22;;;;;;;3.97;3.03;;;4.40;99.90;;;;;;4731713;30;20465;-77
2021/03/19 11:10:06;;;;;;;3.42;3.15;;;4.20;99.90;;;;;;4706838;30;20492;-76
2021/03/19 11:12:38;;;;;;;4.55;3.45;;;4.10;99.90;;;;;;4718052;30;20469;-77
2021/03/19 11:15:17;;;;;;;4.97;3.57;;;3.90;99.90;;;;;;4727516;30;20430;-76
2021/03/19 11:17:42;;;;;;;3.40;3.10;;;3.80;99.90;;;;;;4717163;30;20501;-77
2021/03/19 11:20:20;;;;;;;4.23;3.60;;;4.10;99.90;;;;;;4719810;30;20456;-76
2021/03/19 11:22:47;;;;;;;4.10;3.10;;;4.60;99.90;;;;;;4724414;30;20430;-77
2021/03/19 11:25:44;;;;;;;2.50;2.30;;;5.20;99.90;;;;;;4733840;30;20561;-76
2021/03/19 11:28:29;;;;;;;2.47;2.28;;;5.60;99.90;;;;;;4728456;30;20426;-76
2021/03/19 11:31:10;;;;;;;2.30;2.10;;;5.70;99.90;;;;;;4716772;30;20420;-76
2021/03/19 11:34:08;;;;;;;2.77;2.13;;;5.60;99.90;;;;;;4715850;30;20434;-76
2021/03/19 11:36:57;;;;;;;2.17;1.98;;;5.50;99.90;;;;;;4714097;30;20504;-75
2021/03/19 11:39:39;;;;;;;2.47;2.28;;;5.30;99.90;;;;;;4729618;30;20478;-75
2021/03/19 11:42:11;;;;;;;2.42;2.22;;;5.20;99.90;;;;;;4722405;30;20469;-76
2021/03/19 11:44:37;;;;;;;2.20;2.00;;;5.20;99.90;;;;;;4716846;30;20473;-76
2021/03/19 11:47:46;;;;;;;2.20;2.00;;;5.20;99.90;;;;;;4734547;30;20838;-76
2021/03/19 11:50:22;;;;;;;2.33;2.13;;;5.20;99.90;;;;;;4721919;30;20789;-76
2021/03/19 11:52:53;;;;;;;4.80;3.00;;;5.20;99.90;;;;;;4727088;30;20427;-77
2021/03/19 11:55:23;;;;;;;5.87;4.10;;;5.10;99.90;;;;;;4710105;30;20507;-77
2021/03/19 11:57:49;;;;;;;2.40;2.20;;;5.10;99.90;;;;;;4707535;30;20419;-76
2021/03/19 12:00:19;;;;;;;3.83;2.42;;;5.10;99.90;;;;;;4700076;30;20434;-76
2021/03/19 12:02:45;;;;;;;3.85;3.17;;;5.10;99.90;;;;;;4718757;30;20456;-75
2021/03/19 12:05:12;;;;;;;2.50;2.30;;;5.30;99.90;;;;;;4722556;30;20428;-76
2021/03/19 12:07:37;;;;;;;2.58;2.38;;;5.80;99.90;;;;;;4722431;30;20456;-75
2021/03/19 12:10:05;;;;;;;2.85;2.15;;;6.40;99.90;;;;;;4715082;30;20428;-76
2021/03/19 12:12:30;;;;;;;3.30;1.83;;;6.90;99.90;;;;;;4706798;30;20449;-75
2021/03/19 12:14:57;;;;;;;2.70;2.50;;;7.10;99.90;;;;;;4724478;30;20455;-75
2021/03/19 12:17:23;;;;;;;1.60;1.50;;;6.90;99.90;;;;;;4721497;30;20547;-77
2021/03/19 12:19:49;;;;;;;4.95;3.08;;;6.90;99.90;;;;;;4715686;30;20482;-74
2021/03/19 12:22:15;;;;;;;2.67;2.47;;;6.70;99.90;;;;;;4700280;30;20790;-74
2021/03/19 12:24:41;;;;;;;1.80;1.70;;;6.30;99.90;;;;;;4715972;30;20446;-75
2021/03/19 12:27:06;;;;;;;1.63;1.52;;;5.90;99.90;;;;;;4707367;30;20443;-75
2021/03/19 12:29:32;;;;;;;1.55;1.35;;;5.40;99.90;;;;;;4718759;30;20424;-76
2021/03/19 12:31:58;;;;;;;2.67;2.07;;;4.80;99.90;;;;;;4706332;30;20431;-75
2021/03/19 12:34:24;;;;;;;5.35;4.25;;;4.60;99.90;;;;;;4714831;30;20445;-75
2021/03/19 12:36:50;;;;;;;5.70;4.70;;;4.50;99.90;;;;;;4702215;30;20462;-77
2021/03/19 12:39:18;;;;;;;3.37;3.00;;;4.30;99.90;;;;;;4706606;30;20452;-76
2021/03/19 12:41:44;;;;;;;6.47;4.68;;;4.30;99.90;;;;;;4725202;30;20431;-76
2021/03/19 12:44:10;;;;;;;9.63;6.85;;;4.10;99.90;;;;;;4729395;30;20420;-75
2021/03/19 12:46:38;;;;;;;9.05;5.18;;;4.20;99.90;;;;;;4713174;30;20431;-77
2021/03/19 12:49:04;;;;;;;6.35;3.60;;;4.20;99.90;;;;;;4725823;30;21029;-75
2021/03/19 12:51:30;;;;;;;2.42;2.22;;;4.20;99.90;;;;;;4734368;30;20431;-77
2021/03/19 12:53:56;;;;;;;2.35;2.13;;;4.40;99.90;;;;;;4720304;30;20455;-75
2021/03/19 12:56:21;;;;;;;2.35;2.13;;;5.00;99.90;;;;;;4714596;30;20435;-75
2021/03/19 12:58:47;;;;;;;2.30;2.10;;;5.30;99.90;;;;;;4698709;30;20433;-75
2021/03/19 13:01:18;;;;;;;2.03;1.80;;;5.20;99.90;;;;;;4713469;30;20917;-75
2021/03/19 13:03:44;;;;;;;2.70;2.50;;;4.90;99.90;;;;;;4729810;30;20465;-75
2021/03/19 13:06:10;;;;;;;1.50;1.40;;;4.60;99.90;;;;;;4708832;30;20824;-75
2021/03/19 13:08:36;;;;;;;1.70;1.60;;;4.40;99.90;;;;;;4706410;30;20970;-76
2021/03/19 13:11:02;;;;;;;1.65;1.55;;;4.30;99.90;;;;;;4728296;30;20434;-78
2021/03/19 13:13:27;;;;;;;1.55;1.45;;;4.30;99.90;;;;;;4720849;30;20464;-75
2021/03/19 13:15:53;;;;;;;1.93;1.60;;;4.20;99.90;;;;;;4712005;30;20439;-75
2021/03/19 13:18:19;;;;;;;2.60;1.60;;;4.20;99.90;;;;;;4701849;30;20437;-76
2021/03/19 13:20:45;;;;;;;2.38;2.10;;;3.90;99.90;;;;;;4729980;30;20432;-76
2021/03/19 13:23:10;;;;;;;1.30;1.30;;;3.50;99.90;;;;;;4700447;30;20789;-76